createdAt,value
2019-01-24T00:00:33.095Z,16.10
2019-01-24T00:03:01.812Z,25.17
2019-01-24T00:05:30.512Z,19.13
2019-01-24T00:07:59.126Z,20.50
2019-01-24T00:10:27.791Z,20.47
2019-01-24T00:12:56.490Z,26.30
2019-01-24T00:15:25.112Z,17.83
2019-01-24T00:17:53.736Z,17.47
2019-01-24T00:20:22.455Z,11.67
2019-01-24T00:22:51.060Z,19.60
2019-01-24T00:25:19.739Z,15.67
2019-01-24T00:27:48.364Z,18.03
2019-01-24T00:30:17.352Z,23.60
2019-01-24T00:32:46.034Z,24.70
2019-01-24T00:35:14.741Z,17.53
2019-01-24T00:37:43.531Z,15.27
2019-01-24T00:40:15.208Z,11.67
2019-01-24T00:42:43.899Z,32.93
2019-01-24T00:45:12.517Z,24.57
2019-01-24T00:47:41.214Z,12.93
2019-01-24T00:50:12.311Z,17.00
2019-01-24T00:52:40.979Z,15.37
2019-01-24T00:55:12.210Z,12.20
2019-01-24T00:57:40.819Z,14.73
2019-01-24T01:00:12.397Z,10.43
2019-01-24T01:02:41.031Z,16.47
2019-01-24T01:05:12.189Z,18.80
2019-01-24T01:07:40.867Z,18.97
2019-01-24T01:10:10.878Z,19.40
2019-01-24T01:12:39.500Z,15.83
2019-01-24T01:15:11.081Z,18.73
2019-01-24T01:17:39.793Z,22.70
2019-01-24T01:20:13.753Z,21.20
2019-01-24T01:22:42.527Z,19.63
2019-01-24T01:25:12.603Z,25.70
2019-01-24T01:27:41.295Z,27.53
2019-01-24T01:30:18.856Z,29.33
2019-01-24T01:32:49.211Z,17.43
2019-01-24T01:35:17.835Z,31.70
2019-01-24T01:37:46.499Z,23.90
2019-01-24T01:40:19.833Z,20.43
2019-01-24T01:42:48.939Z,20.30
2019-01-24T01:45:21.937Z,22.00
2019-01-24T01:47:50.712Z,18.70
2019-01-24T01:50:24.150Z,26.50
2019-01-24T01:52:53.676Z,22.03
2019-01-24T01:55:23.780Z,23.17
2019-01-24T01:57:52.470Z,19.37
2019-01-24T02:00:23.182Z,20.70
2019-01-24T02:02:51.864Z,22.90
2019-01-24T02:05:20.546Z,19.97
2019-01-24T02:07:50.456Z,20.73
2019-01-24T02:10:21.063Z,22.20
2019-01-24T02:12:49.685Z,20.90
2019-01-24T02:15:19.205Z,22.80
2019-01-24T02:17:47.913Z,17.93
2019-01-24T02:20:18.858Z,19.23
2019-01-24T02:22:47.568Z,21.97
2019-01-24T02:25:16.237Z,18.43
2019-01-24T02:27:44.951Z,15.13
2019-01-24T02:30:16.541Z,25.47
2019-01-24T02:32:45.230Z,24.83
2019-01-24T02:35:13.871Z,22.87
2019-01-24T02:37:42.550Z,19.03
2019-01-24T02:40:11.570Z,23.77
2019-01-24T02:42:40.243Z,22.90
2019-01-24T02:45:12.275Z,30.60
2019-01-24T02:47:40.975Z,31.93
2019-01-24T02:50:12.633Z,31.20
2019-01-24T02:52:41.280Z,27.50
2019-01-24T02:55:12.668Z,28.67
2019-01-24T02:57:41.308Z,27.80
2019-01-24T03:00:20.926Z,30.80
2019-01-24T03:02:50.024Z,33.17
2019-01-24T03:05:20.088Z,23.90
2019-01-24T03:07:49.631Z,30.57
2019-01-24T03:10:18.377Z,40.40
2019-01-24T03:12:47.218Z,30.50
2019-01-24T03:15:20.632Z,33.10
2019-01-24T03:17:49.381Z,27.20
2019-01-24T03:20:18.731Z,31.20
2019-01-24T03:22:47.871Z,33.87
2019-01-24T03:25:17.587Z,42.60
2019-01-24T03:27:46.486Z,43.10
2019-01-24T03:30:17.330Z,27.50
2019-01-24T03:32:45.998Z,30.73
2019-01-24T03:35:22.703Z,27.00
2019-01-24T03:37:51.342Z,26.37
2019-01-24T03:40:20.000Z,23.73
2019-01-24T03:42:50.306Z,22.63
2019-01-24T03:45:19.122Z,28.13
2019-01-24T03:47:47.713Z,26.47
2019-01-24T03:50:21.296Z,25.30
2019-01-24T03:52:50.524Z,25.17
2019-01-24T03:55:21.280Z,22.60
2019-01-24T03:57:49.977Z,22.90
2019-01-24T04:00:21.449Z,26.17
2019-01-24T04:02:50.079Z,27.17
2019-01-24T04:05:19.487Z,29.13
2019-01-24T04:07:48.197Z,27.20
2019-01-24T04:10:21.526Z,31.97
2019-01-24T04:12:50.266Z,21.43
2019-01-24T04:15:21.187Z,19.30
2019-01-24T04:17:49.875Z,20.87
2019-01-24T04:20:18.523Z,28.40
2019-01-24T04:22:47.270Z,33.03
2019-01-24T04:25:15.934Z,25.50
2019-01-24T04:27:44.661Z,35.77
2019-01-24T04:30:16.069Z,26.63
2019-01-24T04:32:44.745Z,26.73
2019-01-24T04:35:19.635Z,25.30
2019-01-24T04:37:44.174Z,20.23
2019-01-24T04:40:17.770Z,17.10
2019-01-24T04:42:46.448Z,23.10
2019-01-24T04:45:16.677Z,17.30
2019-01-24T04:47:45.363Z,21.00
2019-01-24T04:50:15.967Z,19.53
2019-01-24T04:52:44.603Z,24.73
2019-01-24T04:55:15.605Z,17.93
2019-01-24T04:57:44.271Z,26.47
2019-01-24T05:00:18.735Z,24.83
2019-01-24T05:02:47.356Z,26.97
2019-01-24T05:05:16.045Z,23.23
2019-01-24T05:07:44.696Z,25.23
2019-01-24T05:10:13.999Z,32.80
2019-01-24T05:12:42.690Z,20.63
2019-01-24T05:15:11.355Z,27.67
2019-01-24T05:17:40.031Z,24.60
2019-01-24T05:20:13.555Z,24.57
2019-01-24T05:22:42.430Z,22.67
2019-01-24T05:25:13.545Z,24.70
2019-01-24T05:27:42.327Z,25.70
2019-01-24T05:30:20.002Z,34.80
2019-01-24T05:32:48.619Z,31.50
2019-01-24T05:35:17.299Z,43.73
2019-01-24T05:37:47.556Z,25.87
2019-01-24T05:40:16.183Z,30.50
2019-01-24T05:42:44.893Z,35.50
2019-01-24T05:45:14.516Z,34.40
2019-01-24T05:47:43.210Z,16.93
2019-01-24T05:50:13.649Z,17.83
2019-01-24T05:52:42.314Z,21.57
2019-01-24T05:55:14.742Z,25.20
2019-01-24T05:57:43.404Z,22.03
2019-01-24T06:00:16.808Z,27.67
2019-01-24T06:02:45.514Z,23.27
2019-01-24T06:05:14.445Z,24.33
2019-01-24T06:07:43.153Z,23.07
2019-01-24T06:10:14.961Z,32.10
2019-01-24T06:12:43.544Z,27.47
2019-01-24T06:15:15.033Z,28.47
2019-01-24T06:17:45.288Z,28.60
2019-01-24T06:20:14.897Z,38.43
2019-01-24T06:22:43.514Z,29.87
2019-01-24T06:25:14.419Z,26.83
2019-01-24T06:27:43.412Z,26.80
2019-01-24T06:30:20.252Z,25.83
2019-01-24T06:32:48.963Z,29.73
2019-01-24T06:35:17.598Z,31.37
2019-01-24T06:37:46.217Z,29.50
2019-01-24T06:40:16.608Z,28.17
2019-01-24T06:42:45.295Z,21.53
2019-01-24T06:45:53.611Z,29.77
2019-01-24T06:48:22.718Z,23.83
2019-01-24T06:50:51.422Z,27.10
2019-01-24T06:53:20.026Z,26.87
2019-01-24T06:55:48.719Z,28.77
2019-01-24T06:58:17.369Z,33.63
2019-01-24T07:00:46.065Z,26.73
2019-01-24T07:03:14.691Z,27.40
2019-01-24T07:05:43.335Z,30.03
2019-01-24T07:08:12.035Z,30.00
2019-01-24T07:10:40.633Z,25.10
2019-01-24T07:13:09.273Z,70.67
2019-01-24T07:15:37.960Z,44.60
2019-01-24T07:18:06.600Z,36.63
2019-01-24T07:20:35.293Z,41.67
2019-01-24T07:23:03.976Z,43.13
2019-01-24T07:25:32.658Z,46.67
2019-01-24T07:28:01.288Z,47.33
2019-01-24T07:30:29.975Z,45.07
2019-01-24T07:32:59.731Z,48.27
2019-01-24T07:35:28.529Z,58.40
2019-01-24T07:37:57.154Z,55.17
2019-01-24T07:40:25.991Z,49.60
2019-01-24T07:42:54.632Z,61.87
2019-01-24T07:45:32.300Z,54.43
2019-01-24T07:48:00.956Z,53.83
2019-01-24T07:50:29.601Z,53.97
2019-01-24T07:52:58.307Z,50.63
2019-01-24T07:55:26.956Z,57.43
2019-01-24T07:57:55.643Z,58.40
2019-01-24T08:00:28.976Z,60.93
2019-01-24T08:02:57.691Z,56.63
2019-01-24T08:05:28.488Z,54.33
2019-01-24T08:07:57.108Z,57.00
2019-01-24T08:10:25.846Z,54.40
2019-01-24T08:12:54.615Z,68.77
2019-01-24T08:15:24.142Z,60.70
2019-01-24T08:17:52.873Z,57.33
2019-01-24T08:20:23.670Z,61.90
2019-01-24T08:22:52.288Z,45.13
2019-01-24T08:25:21.016Z,62.20
2019-01-24T08:27:49.658Z,64.57
2019-01-24T08:30:26.862Z,73.20
2019-01-24T08:32:55.592Z,93.30
2019-01-24T08:35:24.589Z,77.73
2019-01-24T08:37:53.623Z,84.50
2019-01-24T08:40:24.383Z,63.73
2019-01-24T08:42:53.071Z,54.40
2019-01-24T08:45:23.155Z,65.43
2019-01-24T08:47:51.791Z,58.27
2019-01-24T08:50:25.681Z,61.47
2019-01-24T08:52:57.495Z,52.90
2019-01-24T08:55:29.220Z,48.40
2019-01-24T08:57:57.887Z,65.83
2019-01-24T09:00:26.508Z,66.07
2019-01-24T09:02:55.215Z,60.90
2019-01-24T09:05:24.053Z,62.90
2019-01-24T09:07:52.811Z,66.20
2019-01-24T09:10:24.051Z,67.90
2019-01-24T09:12:52.735Z,77.47
2019-01-24T09:15:21.438Z,70.90
2019-01-24T09:17:50.061Z,70.93
2019-01-24T09:20:20.318Z,62.23
2019-01-24T09:22:54.982Z,65.60
2019-01-24T09:25:19.469Z,63.23
2019-01-24T09:27:48.166Z,59.43
2019-01-24T09:30:22.380Z,72.23
2019-01-24T09:32:51.082Z,69.47
2019-01-24T09:35:19.807Z,66.13
2019-01-24T09:37:48.481Z,62.50
2019-01-24T09:40:19.383Z,64.90
2019-01-24T09:42:48.026Z,65.47
2019-01-24T09:45:21.786Z,79.23
2019-01-24T09:47:50.502Z,71.87
2019-01-24T09:50:21.783Z,97.80
2019-01-24T09:52:50.403Z,68.33
2019-01-24T09:55:19.042Z,67.47
2019-01-24T09:57:47.768Z,64.63
2019-01-24T10:00:19.053Z,65.83
2019-01-24T10:02:47.682Z,67.47
2019-01-24T10:05:17.277Z,68.73
2019-01-24T10:07:46.044Z,78.00
2019-01-24T10:10:17.367Z,81.47
2019-01-24T10:12:46.026Z,81.33
2019-01-24T10:15:16.711Z,70.47
2019-01-24T10:17:45.362Z,67.23
2019-01-24T10:20:17.095Z,76.53
2019-01-24T10:22:45.714Z,71.60
2019-01-24T10:25:17.308Z,54.03
2019-01-24T10:27:46.011Z,76.63
2019-01-24T10:30:17.569Z,69.60
2019-01-24T10:32:46.401Z,82.60
2019-01-24T10:35:15.215Z,68.87
2019-01-24T10:37:43.865Z,61.97
2019-01-24T10:40:18.509Z,83.50
2019-01-24T10:42:47.123Z,73.17
2019-01-24T10:45:18.103Z,89.77
2019-01-24T10:47:46.770Z,69.20
2019-01-24T10:50:17.688Z,65.97
2019-01-24T10:52:46.373Z,55.90
2019-01-24T10:55:19.746Z,77.60
2019-01-24T10:57:48.743Z,61.93
2019-01-24T11:00:30.037Z,72.80
2019-01-24T11:02:58.709Z,71.23
2019-01-24T11:05:27.380Z,71.00
2019-01-24T11:07:56.088Z,55.53
2019-01-24T11:10:24.773Z,63.73
2019-01-24T11:12:53.473Z,77.07
2019-01-24T11:15:25.554Z,66.20
2019-01-24T11:17:54.248Z,72.73
2019-01-24T11:20:22.940Z,70.77
2019-01-24T11:22:51.595Z,74.67
2019-01-24T11:25:22.564Z,75.83
2019-01-24T11:27:51.269Z,84.53
2019-01-24T11:30:25.376Z,78.90
2019-01-24T11:32:54.119Z,184.10
2019-01-24T11:35:25.579Z,112.90
2019-01-24T11:37:54.277Z,87.23
2019-01-24T11:40:22.893Z,70.00
2019-01-24T11:42:52.623Z,79.37
2019-01-24T11:45:36.018Z,72.80
2019-01-24T11:48:06.183Z,61.53
2019-01-24T11:50:34.816Z,87.23
2019-01-24T11:53:03.515Z,61.73
2019-01-24T11:55:32.144Z,70.50
2019-01-24T11:58:00.850Z,61.07
2019-01-24T12:00:40.985Z,73.27
2019-01-24T12:03:09.610Z,81.10
2019-01-24T12:05:38.324Z,65.83
2019-01-24T12:08:07.763Z,71.03
2019-01-24T12:10:36.481Z,71.00
2019-01-24T12:13:05.298Z,63.20
2019-01-24T12:15:33.930Z,64.10
2019-01-24T12:18:02.634Z,79.17
2019-01-24T12:20:31.256Z,64.77
2019-01-24T12:22:59.967Z,63.87
2019-01-24T12:25:28.593Z,57.30
2019-01-24T12:27:57.312Z,73.33
2019-01-24T12:30:33.857Z,63.33
2019-01-24T12:33:03.338Z,50.43
2019-01-24T12:35:31.969Z,69.23
2019-01-24T12:38:00.658Z,86.47
2019-01-24T12:40:29.279Z,107.00
2019-01-24T12:42:57.935Z,95.33
2019-01-24T12:45:34.744Z,57.00
2019-01-24T12:48:03.374Z,56.80
2019-01-24T12:50:33.041Z,67.50
2019-01-24T12:53:01.689Z,57.23
2019-01-24T12:55:30.478Z,59.07
2019-01-24T12:57:59.110Z,59.20
2019-01-24T13:00:30.657Z,61.90
2019-01-24T13:02:59.289Z,64.07
2019-01-24T13:05:28.025Z,69.97
2019-01-24T13:07:56.999Z,56.13
2019-01-24T13:10:27.604Z,74.07
2019-01-24T13:12:56.290Z,73.30
2019-01-24T13:15:27.590Z,63.53
2019-01-24T13:17:56.222Z,63.53
2019-01-24T13:20:24.898Z,74.10
2019-01-24T13:22:53.585Z,59.93
2019-01-24T13:25:27.974Z,59.37
2019-01-24T13:27:56.673Z,57.00
2019-01-24T13:30:27.711Z,67.17
2019-01-24T13:32:56.429Z,57.60
2019-01-24T13:35:25.028Z,59.70
2019-01-24T13:37:53.727Z,50.10
2019-01-24T13:40:24.708Z,62.63
2019-01-24T13:42:53.410Z,54.50
2019-01-24T13:45:25.002Z,66.53
2019-01-24T13:47:53.649Z,59.80
2019-01-24T13:50:22.345Z,60.50
2019-01-24T13:52:51.113Z,56.73
2019-01-24T13:55:19.764Z,48.67
2019-01-24T13:57:48.403Z,61.27
2019-01-24T14:00:22.693Z,63.40
2019-01-24T14:02:54.295Z,56.50
2019-01-24T14:05:22.991Z,66.53
2019-01-24T14:07:51.689Z,59.17
2019-01-24T14:10:20.407Z,52.73
2019-01-24T14:12:49.152Z,63.40
2019-01-24T14:15:19.374Z,58.63
2019-01-24T14:17:47.989Z,57.63
2019-01-24T14:20:18.922Z,62.83
2019-01-24T14:22:47.734Z,55.37
2019-01-24T14:25:18.804Z,55.33
2019-01-24T14:27:47.520Z,61.37
2019-01-24T14:30:19.333Z,53.53
2019-01-24T14:32:48.109Z,55.07
2019-01-24T14:35:16.735Z,59.23
2019-01-24T14:37:45.432Z,62.43
2019-01-24T14:40:15.307Z,56.90
2019-01-24T14:42:44.015Z,66.07
2019-01-24T14:45:18.374Z,46.00
2019-01-24T14:47:47.054Z,47.67
2019-01-24T14:50:18.393Z,41.63
2019-01-24T14:52:47.186Z,43.07
2019-01-24T14:55:15.822Z,57.00
2019-01-24T14:57:44.523Z,42.20
2019-01-24T15:00:22.030Z,52.60
2019-01-24T15:02:50.755Z,46.93
2019-01-24T15:05:19.367Z,45.83
2019-01-24T15:07:48.054Z,46.37
2019-01-24T15:10:16.978Z,45.37
2019-01-24T15:12:50.214Z,61.47
2019-01-24T15:15:22.187Z,56.47
2019-01-24T15:17:52.445Z,53.40
2019-01-24T15:20:22.920Z,51.13
2019-01-24T15:22:51.552Z,45.77
2019-01-24T15:25:24.545Z,63.93
2019-01-24T15:27:53.173Z,57.60
2019-01-24T15:30:24.740Z,58.53
2019-01-24T15:32:53.457Z,54.83
2019-01-24T15:35:22.131Z,57.70
2019-01-24T15:37:54.671Z,53.77
2019-01-24T15:40:30.096Z,51.77
2019-01-24T15:43:00.526Z,50.50
2019-01-24T15:45:30.925Z,60.50
2019-01-24T15:48:02.234Z,44.40
2019-01-24T15:50:30.942Z,52.20
2019-01-24T15:53:01.159Z,51.80
2019-01-24T15:55:32.542Z,55.63
2019-01-24T15:58:01.236Z,55.93
2019-01-24T16:00:38.906Z,59.93
2019-01-24T16:03:07.572Z,50.77
2019-01-24T16:05:36.249Z,50.83
2019-01-24T16:08:05.230Z,46.13
2019-01-24T16:10:40.033Z,56.37
2019-01-24T16:13:08.655Z,61.23
2019-01-24T16:15:39.414Z,42.03
2019-01-24T16:18:10.096Z,49.93
2019-01-24T16:20:38.832Z,53.87
2019-01-24T16:23:07.460Z,56.50
2019-01-24T16:25:36.647Z,51.83
2019-01-24T16:28:06.142Z,49.43
2019-01-24T16:30:35.963Z,53.10
2019-01-24T16:33:07.272Z,52.10
2019-01-24T16:35:35.965Z,51.67
2019-01-24T16:38:09.245Z,60.80
2019-01-24T16:40:35.125Z,58.93
2019-01-24T16:43:05.297Z,56.23
2019-01-24T16:45:33.992Z,53.20
2019-01-24T16:48:05.286Z,43.13
2019-01-24T16:50:33.875Z,49.20
2019-01-24T16:53:02.571Z,47.10
2019-01-24T16:55:31.222Z,49.70
2019-01-24T16:58:00.037Z,50.57
2019-01-24T17:00:37.866Z,55.67
2019-01-24T17:03:06.977Z,71.37
2019-01-24T17:05:35.748Z,58.33
2019-01-24T17:08:06.163Z,55.80
2019-01-24T17:10:34.827Z,68.00
2019-01-24T17:13:04.608Z,55.67
2019-01-24T17:15:33.200Z,55.50
2019-01-24T17:18:01.899Z,61.83
2019-01-24T17:20:32.015Z,47.60
2019-01-24T17:23:00.725Z,52.33
2019-01-24T17:25:33.858Z,45.10
2019-01-24T17:28:02.553Z,51.60
2019-01-24T17:30:32.616Z,61.43
2019-01-24T17:33:05.830Z,54.10
2019-01-24T17:35:34.579Z,48.20
2019-01-24T17:38:03.277Z,60.07
2019-01-24T17:40:36.419Z,59.67
2019-01-24T17:43:06.014Z,45.90
2019-01-24T17:45:34.722Z,49.13
2019-01-24T17:48:03.366Z,47.23
2019-01-24T17:50:34.586Z,63.23
2019-01-24T17:53:03.220Z,49.47
2019-01-24T17:55:37.203Z,42.73
2019-01-24T17:58:07.714Z,52.57
2019-01-24T18:00:40.808Z,50.30
2019-01-24T18:03:13.114Z,60.77
2019-01-24T18:05:41.534Z,39.73
2019-01-24T18:08:10.277Z,46.30
2019-01-24T18:10:38.955Z,40.77
2019-01-24T18:13:07.723Z,43.07
2019-01-24T18:15:37.590Z,46.07
2019-01-24T18:18:09.787Z,39.50
2019-01-24T18:20:39.652Z,38.17
2019-01-24T18:23:11.028Z,40.10
2019-01-24T18:25:39.752Z,38.17
2019-01-24T18:28:10.385Z,41.50
2019-01-24T18:30:41.894Z,38.73
2019-01-24T18:33:12.917Z,46.90
2019-01-24T18:35:41.621Z,44.63
2019-01-24T18:38:11.853Z,56.20
2019-01-24T18:40:40.492Z,44.10
2019-01-24T18:43:13.491Z,37.10
2019-01-24T18:45:48.122Z,41.13
2019-01-24T18:48:16.934Z,44.37
2019-01-24T18:50:46.500Z,41.90
2019-01-24T18:53:15.500Z,41.67
2019-01-24T18:55:44.163Z,35.97
2019-01-24T18:58:12.874Z,43.87
2019-01-24T19:00:43.018Z,48.87
2019-01-24T19:03:13.640Z,42.13
2019-01-24T19:05:42.394Z,47.33
2019-01-24T19:08:13.260Z,38.40
2019-01-24T19:10:41.694Z,46.43
2019-01-24T19:13:12.411Z,46.10
2019-01-24T19:15:43.921Z,45.13
2019-01-24T19:18:12.580Z,58.83
2019-01-24T19:20:42.803Z,38.63
2019-01-24T19:23:11.531Z,43.30
2019-01-24T19:25:40.343Z,46.90
2019-01-24T19:28:09.001Z,42.50
2019-01-24T19:30:37.654Z,52.47
2019-01-24T19:33:06.819Z,53.53
2019-01-24T19:35:35.644Z,50.93
2019-01-24T19:38:04.485Z,51.60
2019-01-24T19:40:34.111Z,46.47
2019-01-24T19:43:03.135Z,52.83
2019-01-24T19:45:31.961Z,54.57
2019-01-24T19:48:00.834Z,46.77
2019-01-24T19:50:30.227Z,48.90
2019-01-24T19:52:59.028Z,42.57
2019-01-24T19:55:29.246Z,39.53
2019-01-24T19:57:58.163Z,41.63
2019-01-24T20:00:29.338Z,42.77
2019-01-24T20:02:59.836Z,38.10
2019-01-24T20:05:29.245Z,37.80
2019-01-24T20:07:58.055Z,38.63
2019-01-24T20:10:29.620Z,36.50
2019-01-24T20:13:00.520Z,39.27
2019-01-24T20:15:31.816Z,36.77
2019-01-24T20:18:00.534Z,37.37
2019-01-24T20:20:29.373Z,43.80
2019-01-24T20:23:00.481Z,33.57
2019-01-24T20:25:31.156Z,33.77
2019-01-24T20:27:59.857Z,35.27
2019-01-24T20:30:33.705Z,34.17
2019-01-24T20:33:02.799Z,34.83
2019-01-24T20:35:40.500Z,42.03
2019-01-24T20:38:10.704Z,35.83
2019-01-24T20:40:39.820Z,34.23
2019-01-24T20:43:10.786Z,38.23
2019-01-24T20:45:40.007Z,37.00
2019-01-24T20:48:08.628Z,38.77
2019-01-24T20:50:37.335Z,46.80
2019-01-24T20:53:06.172Z,40.10
2019-01-24T20:55:35.142Z,47.13
2019-01-24T20:58:03.898Z,37.67
2019-01-24T21:00:32.648Z,34.57
2019-01-24T21:03:01.482Z,45.23
2019-01-24T21:05:30.206Z,39.60
2019-01-24T21:07:58.922Z,40.23
2019-01-24T21:10:29.425Z,29.30
2019-01-24T21:12:58.144Z,34.43
2019-01-24T21:15:26.776Z,30.67
2019-01-24T21:17:55.422Z,32.97
2019-01-24T21:20:26.446Z,38.80
2019-01-24T21:22:55.112Z,30.33
2019-01-24T21:25:24.979Z,32.17
2019-01-24T21:27:53.658Z,41.37
2019-01-24T21:30:28.020Z,33.87
2019-01-24T21:32:56.868Z,27.83
2019-01-24T21:35:25.509Z,34.73
2019-01-24T21:37:54.469Z,42.63
2019-01-24T21:40:24.648Z,34.90
2019-01-24T21:42:53.328Z,35.30
2019-01-24T21:45:30.565Z,37.80
2019-01-24T21:47:59.189Z,40.17
2019-01-24T21:50:30.304Z,34.40
2019-01-24T21:52:58.956Z,41.40
2019-01-24T21:55:27.861Z,37.03
2019-01-24T21:57:56.773Z,24.43
2019-01-24T22:00:27.834Z,34.20
2019-01-24T22:02:56.586Z,33.57
2019-01-24T22:05:26.975Z,31.37
2019-01-24T22:07:57.178Z,30.23
2019-01-24T22:10:39.998Z,32.93
2019-01-24T22:13:08.636Z,30.73
2019-01-24T22:15:37.353Z,31.47
2019-01-24T22:18:09.876Z,29.47
2019-01-24T22:20:43.302Z,35.10
2019-01-24T22:23:11.924Z,35.03
2019-01-24T22:25:45.034Z,30.43
2019-01-24T22:28:13.696Z,33.07
2019-01-24T22:30:44.495Z,29.57
2019-01-24T22:33:13.191Z,32.50
2019-01-24T22:35:41.856Z,33.27
2019-01-24T22:38:10.642Z,32.23
2019-01-24T22:40:39.272Z,26.40
2019-01-24T22:43:08.065Z,35.17
2019-01-24T22:45:36.691Z,26.13
2019-01-24T22:48:06.115Z,40.27
2019-01-24T22:50:34.723Z,32.37
2019-01-24T22:53:03.408Z,28.47
2019-01-24T22:55:32.097Z,27.30
2019-01-24T22:58:00.760Z,36.23
2019-01-24T23:00:51.810Z,32.93
2019-01-24T23:03:26.162Z,29.47
2019-01-24T23:05:54.804Z,27.13
2019-01-24T23:08:23.496Z,30.77
2019-01-24T23:10:52.112Z,26.00
2019-01-24T23:13:20.889Z,39.33
2019-01-24T23:15:49.574Z,35.80
2019-01-24T23:18:18.185Z,21.03
2019-01-24T23:20:46.907Z,34.00
2019-01-24T23:23:15.508Z,25.17
2019-01-24T23:25:44.203Z,28.60
2019-01-24T23:28:12.842Z,38.33
2019-01-24T23:30:41.543Z,28.87
2019-01-24T23:33:10.168Z,32.20
2019-01-24T23:35:38.826Z,29.33
2019-01-24T23:38:07.499Z,31.43
2019-01-24T23:40:36.182Z,20.23
2019-01-24T23:43:05.238Z,32.63
2019-01-24T23:45:33.925Z,21.77
2019-01-24T23:48:02.631Z,37.23
2019-01-24T23:50:31.310Z,35.87
2019-01-24T23:52:59.998Z,29.20
2019-01-24T23:55:28.622Z,28.30
2019-01-24T23:57:57.325Z,27.57
